sensor_id;sensor_type;location;lat;lon;timestamp;P1;durP1;ratioP1;P2;durP2;ratioP2
30048;SDS011;16879;50.852;15.602;2022-12-10T00:01:56;98.28;;;50.00;;
30048;SDS011;16879;50.852;15.602;2022-12-10T00:04:22;120.85;;;56.35;;
30048;SDS011;16879;50.852;15.602;2022-12-10T00:06:48;120.60;;;55.03;;
30048;SDS011;16879;50.852;15.602;2022-12-10T00:09:15;101.43;;;45.55;;
30048;SDS011;16879;50.852;15.602;2022-12-10T00:11:42;98.25;;;45.50;;
30048;SDS011;16879;50.852;15.602;2022-12-10T00:14:08;98.10;;;44.50;;
30048;SDS011;16879;50.852;15.602;2022-12-10T00:16:35;91.55;;;38.83;;
30048;SDS011;16879;50.852;15.602;2022-12-10T00:19:01;93.90;;;42.60;;
30048;SDS011;16879;50.852;15.602;2022-12-10T00:21:29;94.53;;;43.20;;
30048;SDS011;16879;50.852;15.602;2022-12-10T00:23:55;96.50;;;42.15;;
30048;SDS011;16879;50.852;15.602;2022-12-10T00:26:22;102.75;;;41.47;;
30048;SDS011;16879;50.852;15.602;2022-12-10T00:28:49;99.47;;;41.08;;
30048;SDS011;16879;50.852;15.602;2022-12-10T00:31:17;101.78;;;40.10;;
30048;SDS011;16879;50.852;15.602;2022-12-10T00:33:49;113.82;;;48.47;;
30048;SDS011;16879;50.852;15.602;2022-12-10T00:36:17;91.55;;;38.50;;
30048;SDS011;16879;50.852;15.602;2022-12-10T00:38:44;102.78;;;42.63;;
30048;SDS011;16879;50.852;15.602;2022-12-10T00:41:11;86.43;;;37.13;;
30048;SDS011;16879;50.852;15.602;2022-12-10T00:43:37;108.57;;;42.15;;
30048;SDS011;16879;50.852;15.602;2022-12-10T00:46:04;98.78;;;38.33;;
30048;SDS011;16879;50.852;15.602;2022-12-10T00:48:30;102.10;;;39.40;;
30048;SDS011;16879;50.852;15.602;2022-12-10T00:50:57;98.72;;;40.78;;
30048;SDS011;16879;50.852;15.602;2022-12-10T00:53:24;96.85;;;35.22;;
30048;SDS011;16879;50.852;15.602;2022-12-10T00:55:51;111.72;;;41.70;;
30048;SDS011;16879;50.852;15.602;2022-12-10T00:58:17;100.95;;;41.72;;
30048;SDS011;16879;50.852;15.602;2022-12-10T01:00:44;89.10;;;35.53;;
30048;SDS011;16879;50.852;15.602;2022-12-10T01:03:10;96.97;;;37.63;;
30048;SDS011;16879;50.852;15.602;2022-12-10T01:05:36;125.20;;;44.63;;
30048;SDS011;16879;50.852;15.602;2022-12-10T01:08:02;96.25;;;38.92;;
30048;SDS011;16879;50.852;15.602;2022-12-10T01:10:28;94.35;;;35.33;;
30048;SDS011;16879;50.852;15.602;2022-12-10T01:12:55;91.80;;;33.15;;
30048;SDS011;16879;50.852;15.602;2022-12-10T01:15:21;93.72;;;34.13;;
30048;SDS011;16879;50.852;15.602;2022-12-10T01:17:47;121.65;;;42.17;;
30048;SDS011;16879;50.852;15.602;2022-12-10T01:20:13;115.47;;;45.85;;
30048;SDS011;16879;50.852;15.602;2022-12-10T01:22:39;121.43;;;39.88;;
30048;SDS011;16879;50.852;15.602;2022-12-10T01:25:05;103.00;;;36.58;;
30048;SDS011;16879;50.852;15.602;2022-12-10T01:27:32;111.10;;;40.40;;
30048;SDS011;16879;50.852;15.602;2022-12-10T01:29:58;122.05;;;44.33;;
30048;SDS011;16879;50.852;15.602;2022-12-10T01:32:24;127.43;;;42.40;;
30048;SDS011;16879;50.852;15.602;2022-12-10T01:34:50;107.90;;;35.28;;
30048;SDS011;16879;50.852;15.602;2022-12-10T01:37:16;126.53;;;44.28;;
30048;SDS011;16879;50.852;15.602;2022-12-10T01:39:42;103.18;;;35.53;;
30048;SDS011;16879;50.852;15.602;2022-12-10T01:42:09;120.43;;;41.30;;
30048;SDS011;16879;50.852;15.602;2022-12-10T01:47:07;107.50;;;39.30;;
30048;SDS011;16879;50.852;15.602;2022-12-10T01:49:38;117.07;;;42.90;;
30048;SDS011;16879;50.852;15.602;2022-12-10T01:52:06;121.47;;;42.95;;
30048;SDS011;16879;50.852;15.602;2022-12-10T01:54:37;104.40;;;37.38;;
30048;SDS011;16879;50.852;15.602;2022-12-10T01:57:06;110.32;;;39.70;;
30048;SDS011;16879;50.852;15.602;2022-12-10T01:59:33;106.13;;;39.28;;
30048;SDS011;16879;50.852;15.602;2022-12-10T02:07:09;110.80;;;36.05;;
30048;SDS011;16879;50.852;15.602;2022-12-10T02:09:43;100.43;;;38.28;;
30048;SDS011;16879;50.852;15.602;2022-12-10T02:12:15;98.28;;;32.75;;
30048;SDS011;16879;50.852;15.602;2022-12-10T02:15:32;95.20;;;35.28;;
30048;SDS011;16879;50.852;15.602;2022-12-10T02:17:49;103.22;;;36.17;;
30048;SDS011;16879;50.852;15.602;2022-12-10T02:22:53;103.15;;;36.55;;
30048;SDS011;16879;50.852;15.602;2022-12-10T02:25:29;89.82;;;31.63;;
30048;SDS011;16879;50.852;15.602;2022-12-10T02:28:05;98.40;;;36.17;;
30048;SDS011;16879;50.852;15.602;2022-12-10T02:30:58;88.07;;;33.33;;
30048;SDS011;16879;50.852;15.602;2022-12-10T02:33:26;90.13;;;33.95;;
30048;SDS011;16879;50.852;15.602;2022-12-10T02:35:54;77.22;;;30.55;;
30048;SDS011;16879;50.852;15.602;2022-12-10T02:38:29;95.45;;;32.92;;
30048;SDS011;16879;50.852;15.602;2022-12-10T02:41:40;86.03;;;29.73;;
30048;SDS011;16879;50.852;15.602;2022-12-10T02:43:46;79.47;;;30.05;;
30048;SDS011;16879;50.852;15.602;2022-12-10T02:46:17;67.20;;;26.17;;
30048;SDS011;16879;50.852;15.602;2022-12-10T02:48:43;73.25;;;29.60;;
30048;SDS011;16879;50.852;15.602;2022-12-10T02:51:13;78.95;;;30.75;;
30048;SDS011;16879;50.852;15.602;2022-12-10T02:53:43;74.03;;;29.10;;
30048;SDS011;16879;50.852;15.602;2022-12-10T02:56:13;75.05;;;29.40;;
30048;SDS011;16879;50.852;15.602;2022-12-10T03:01:40;67.32;;;24.77;;
30048;SDS011;16879;50.852;15.602;2022-12-10T03:04:14;68.53;;;27.13;;
30048;SDS011;16879;50.852;15.602;2022-12-10T03:06:51;68.65;;;27.05;;
30048;SDS011;16879;50.852;15.602;2022-12-10T03:09:23;73.80;;;29.88;;
30048;SDS011;16879;50.852;15.602;2022-12-10T03:11:50;63.65;;;25.30;;
30048;SDS011;16879;50.852;15.602;2022-12-10T03:14:24;64.72;;;27.02;;
30048;SDS011;16879;50.852;15.602;2022-12-10T03:16:55;64.53;;;28.02;;
30048;SDS011;16879;50.852;15.602;2022-12-10T03:19:24;67.18;;;27.58;;
30048;SDS011;16879;50.852;15.602;2022-12-10T03:21:54;69.70;;;28.02;;
30048;SDS011;16879;50.852;15.602;2022-12-10T03:24:20;55.05;;;22.95;;
30048;SDS011;16879;50.852;15.602;2022-12-10T03:26:48;64.80;;;24.23;;
30048;SDS011;16879;50.852;15.602;2022-12-10T03:29:15;72.97;;;28.25;;
30048;SDS011;16879;50.852;15.602;2022-12-10T03:31:46;71.38;;;27.73;;
30048;SDS011;16879;50.852;15.602;2022-12-10T03:34:13;73.20;;;28.67;;
30048;SDS011;16879;50.852;15.602;2022-12-10T03:36:40;72.07;;;27.30;;
30048;SDS011;16879;50.852;15.602;2022-12-10T03:39:07;66.93;;;26.08;;
30048;SDS011;16879;50.852;15.602;2022-12-10T03:41:33;66.18;;;24.98;;
30048;SDS011;16879;50.852;15.602;2022-12-10T03:43:59;70.10;;;28.92;;
30048;SDS011;16879;50.852;15.602;2022-12-10T03:46:27;68.47;;;28.10;;
30048;SDS011;16879;50.852;15.602;2022-12-10T03:51:29;64.93;;;26.90;;
30048;SDS011;16879;50.852;15.602;2022-12-10T03:53:56;57.92;;;24.05;;
30048;SDS011;16879;50.852;15.602;2022-12-10T03:56:22;58.85;;;22.92;;
30048;SDS011;16879;50.852;15.602;2022-12-10T03:58:48;67.13;;;25.42;;
30048;SDS011;16879;50.852;15.602;2022-12-10T04:01:17;52.83;;;21.38;;
30048;SDS011;16879;50.852;15.602;2022-12-10T04:03:43;69.35;;;28.38;;
30048;SDS011;16879;50.852;15.602;2022-12-10T04:06:16;52.45;;;20.65;;
30048;SDS011;16879;50.852;15.602;2022-12-10T04:08:44;56.50;;;21.58;;
30048;SDS011;16879;50.852;15.602;2022-12-10T04:11:11;55.53;;;22.50;;
30048;SDS011;16879;50.852;15.602;2022-12-10T04:13:37;47.25;;;19.67;;
30048;SDS011;16879;50.852;15.602;2022-12-10T04:16:23;44.22;;;19.50;;
30048;SDS011;16879;50.852;15.602;2022-12-10T04:18:53;46.45;;;18.98;;
30048;SDS011;16879;50.852;15.602;2022-12-10T04:21:19;61.80;;;23.83;;
30048;SDS011;16879;50.852;15.602;2022-12-10T04:24:04;50.15;;;20.42;;
30048;SDS011;16879;50.852;15.602;2022-12-10T04:26:49;47.38;;;20.77;;
30048;SDS011;16879;50.852;15.602;2022-12-10T04:29:18;41.50;;;18.90;;
30048;SDS011;16879;50.852;15.602;2022-12-10T04:31:51;47.60;;;20.25;;
30048;SDS011;16879;50.852;15.602;2022-12-10T04:34:18;49.33;;;19.27;;
30048;SDS011;16879;50.852;15.602;2022-12-10T04:36:44;49.75;;;21.77;;
30048;SDS011;16879;50.852;15.602;2022-12-10T04:39:11;52.78;;;21.90;;
30048;SDS011;16879;50.852;15.602;2022-12-10T04:41:40;59.95;;;23.92;;
30048;SDS011;16879;50.852;15.602;2022-12-10T04:44:07;51.92;;;20.63;;
30048;SDS011;16879;50.852;15.602;2022-12-10T04:46:33;41.83;;;19.92;;
30048;SDS011;16879;50.852;15.602;2022-12-10T04:48:59;46.45;;;19.60;;
30048;SDS011;16879;50.852;15.602;2022-12-10T04:51:25;46.50;;;22.90;;
30048;SDS011;16879;50.852;15.602;2022-12-10T04:53:52;42.90;;;18.92;;
30048;SDS011;16879;50.852;15.602;2022-12-10T04:56:18;37.30;;;18.15;;
30048;SDS011;16879;50.852;15.602;2022-12-10T04:58:44;44.95;;;19.83;;
30048;SDS011;16879;50.852;15.602;2022-12-10T05:01:10;45.53;;;19.48;;
30048;SDS011;16879;50.852;15.602;2022-12-10T05:03:37;50.30;;;22.20;;
30048;SDS011;16879;50.852;15.602;2022-12-10T05:06:05;39.22;;;17.60;;
30048;SDS011;16879;50.852;15.602;2022-12-10T05:08:31;32.30;;;15.95;;
30048;SDS011;16879;50.852;15.602;2022-12-10T05:11:01;42.65;;;17.80;;
30048;SDS011;16879;50.852;15.602;2022-12-10T05:13:28;43.92;;;17.75;;
30048;SDS011;16879;50.852;15.602;2022-12-10T05:15:54;50.15;;;21.20;;
30048;SDS011;16879;50.852;15.602;2022-12-10T05:18:20;37.35;;;16.80;;
30048;SDS011;16879;50.852;15.602;2022-12-10T05:20:46;48.58;;;21.13;;
30048;SDS011;16879;50.852;15.602;2022-12-10T05:23:12;45.25;;;20.65;;
30048;SDS011;16879;50.852;15.602;2022-12-10T05:26:03;39.22;;;18.02;;
30048;SDS011;16879;50.852;15.602;2022-12-10T05:28:33;38.58;;;17.75;;
30048;SDS011;16879;50.852;15.602;2022-12-10T05:30:59;35.47;;;15.73;;
30048;SDS011;16879;50.852;15.602;2022-12-10T05:33:26;40.38;;;18.58;;
30048;SDS011;16879;50.852;15.602;2022-12-10T05:35:52;40.53;;;18.00;;
30048;SDS011;16879;50.852;15.602;2022-12-10T05:38:23;47.47;;;19.85;;
30048;SDS011;16879;50.852;15.602;2022-12-10T05:40:50;50.60;;;20.55;;
30048;SDS011;16879;50.852;15.602;2022-12-10T05:43:16;44.47;;;20.60;;
30048;SDS011;16879;50.852;15.602;2022-12-10T05:45:45;44.78;;;19.30;;
30048;SDS011;16879;50.852;15.602;2022-12-10T05:48:12;49.67;;;20.75;;
30048;SDS011;16879;50.852;15.602;2022-12-10T05:50:40;46.40;;;21.23;;
30048;SDS011;16879;50.852;15.602;2022-12-10T05:53:06;40.25;;;21.05;;
30048;SDS011;16879;50.852;15.602;2022-12-10T05:55:32;40.30;;;18.88;;
30048;SDS011;16879;50.852;15.602;2022-12-10T05:57:59;38.40;;;17.23;;
30048;SDS011;16879;50.852;15.602;2022-12-10T06:00:26;63.30;;;24.65;;
30048;SDS011;16879;50.852;15.602;2022-12-10T06:02:52;42.80;;;19.27;;
30048;SDS011;16879;50.852;15.602;2022-12-10T06:05:18;45.65;;;21.75;;
30048;SDS011;16879;50.852;15.602;2022-12-10T06:07:44;43.63;;;21.05;;
30048;SDS011;16879;50.852;15.602;2022-12-10T06:10:10;38.55;;;17.45;;
30048;SDS011;16879;50.852;15.602;2022-12-10T06:12:37;48.58;;;22.25;;
30048;SDS011;16879;50.852;15.602;2022-12-10T06:15:04;39.90;;;18.38;;
30048;SDS011;16879;50.852;15.602;2022-12-10T06:17:30;48.45;;;20.40;;
30048;SDS011;16879;50.852;15.602;2022-12-10T06:19:56;46.38;;;22.42;;
30048;SDS011;16879;50.852;15.602;2022-12-10T06:22:23;49.25;;;20.17;;
30048;SDS011;16879;50.852;15.602;2022-12-10T06:24:49;51.42;;;25.48;;
30048;SDS011;16879;50.852;15.602;2022-12-10T06:27:15;50.58;;;24.70;;
30048;SDS011;16879;50.852;15.602;2022-12-10T06:29:41;63.92;;;27.52;;
30048;SDS011;16879;50.852;15.602;2022-12-10T06:32:07;49.10;;;23.60;;
30048;SDS011;16879;50.852;15.602;2022-12-10T06:34:33;45.30;;;20.65;;
30048;SDS011;16879;50.852;15.602;2022-12-10T06:36:59;50.67;;;21.65;;
30048;SDS011;16879;50.852;15.602;2022-12-10T06:39:25;53.25;;;22.85;;
30048;SDS011;16879;50.852;15.602;2022-12-10T06:41:52;43.53;;;21.13;;
30048;SDS011;16879;50.852;15.602;2022-12-10T06:44:18;38.60;;;16.90;;
30048;SDS011;16879;50.852;15.602;2022-12-10T06:46:44;49.25;;;21.40;;
30048;SDS011;16879;50.852;15.602;2022-12-10T06:49:10;43.50;;;18.15;;
30048;SDS011;16879;50.852;15.602;2022-12-10T06:51:36;46.47;;;22.75;;
30048;SDS011;16879;50.852;15.602;2022-12-10T06:54:03;44.05;;;20.65;;
30048;SDS011;16879;50.852;15.602;2022-12-10T06:56:30;36.90;;;16.33;;
30048;SDS011;16879;50.852;15.602;2022-12-10T06:58:56;40.40;;;18.88;;
30048;SDS011;16879;50.852;15.602;2022-12-10T07:01:22;42.85;;;18.40;;
30048;SDS011;16879;50.852;15.602;2022-12-10T07:03:53;39.53;;;17.42;;
30048;SDS011;16879;50.852;15.602;2022-12-10T07:06:20;48.17;;;21.80;;
30048;SDS011;16879;50.852;15.602;2022-12-10T07:08:47;54.45;;;24.70;;
30048;SDS011;16879;50.852;15.602;2022-12-10T07:11:16;55.45;;;25.80;;
30048;SDS011;16879;50.852;15.602;2022-12-10T07:13:44;52.00;;;24.27;;
30048;SDS011;16879;50.852;15.602;2022-12-10T07:16:14;48.60;;;21.92;;
30048;SDS011;16879;50.852;15.602;2022-12-10T07:18:41;46.00;;;21.42;;
30048;SDS011;16879;50.852;15.602;2022-12-10T07:21:21;53.13;;;25.75;;
30048;SDS011;16879;50.852;15.602;2022-12-10T07:23:49;52.05;;;23.63;;
30048;SDS011;16879;50.852;15.602;2022-12-10T07:26:16;55.85;;;29.02;;
30048;SDS011;16879;50.852;15.602;2022-12-10T07:28:42;60.55;;;25.60;;
30048;SDS011;16879;50.852;15.602;2022-12-10T07:31:09;46.40;;;23.55;;
30048;SDS011;16879;50.852;15.602;2022-12-10T07:33:35;44.20;;;23.10;;
30048;SDS011;16879;50.852;15.602;2022-12-10T07:36:05;54.17;;;23.45;;
30048;SDS011;16879;50.852;15.602;2022-12-10T07:38:33;47.80;;;25.00;;
30048;SDS011;16879;50.852;15.602;2022-12-10T07:41:02;49.40;;;21.10;;
30048;SDS011;16879;50.852;15.602;2022-12-10T07:43:29;54.28;;;24.92;;
30048;SDS011;16879;50.852;15.602;2022-12-10T07:45:55;46.33;;;23.85;;
30048;SDS011;16879;50.852;15.602;2022-12-10T07:48:21;54.53;;;23.58;;
30048;SDS011;16879;50.852;15.602;2022-12-10T07:50:46;47.13;;;22.30;;
30048;SDS011;16879;50.852;15.602;2022-12-10T07:53:20;46.10;;;19.13;;
30048;SDS011;16879;50.852;15.602;2022-12-10T07:55:45;46.42;;;21.02;;
30048;SDS011;16879;50.852;15.602;2022-12-10T07:58:12;42.75;;;22.58;;
30048;SDS011;16879;50.852;15.602;2022-12-10T08:00:38;41.20;;;20.05;;
30048;SDS011;16879;50.852;15.602;2022-12-10T08:03:03;48.50;;;22.83;;
30048;SDS011;16879;50.852;15.602;2022-12-10T08:05:30;49.47;;;24.35;;
30048;SDS011;16879;50.852;15.602;2022-12-10T08:07:56;50.00;;;26.30;;
30048;SDS011;16879;50.852;15.602;2022-12-10T08:10:22;44.78;;;22.48;;
30048;SDS011;16879;50.852;15.602;2022-12-10T08:12:48;49.22;;;22.33;;
30048;SDS011;16879;50.852;15.602;2022-12-10T08:15:14;58.08;;;24.50;;
30048;SDS011;16879;50.852;15.602;2022-12-10T08:17:40;67.55;;;26.25;;
30048;SDS011;16879;50.852;15.602;2022-12-10T08:20:06;48.90;;;22.27;;
30048;SDS011;16879;50.852;15.602;2022-12-10T08:22:33;45.90;;;22.65;;
30048;SDS011;16879;50.852;15.602;2022-12-10T08:25:00;41.63;;;19.38;;
30048;SDS011;16879;50.852;15.602;2022-12-10T08:27:27;38.42;;;19.77;;
30048;SDS011;16879;50.852;15.602;2022-12-10T08:29:53;47.38;;;22.52;;
30048;SDS011;16879;50.852;15.602;2022-12-10T08:32:19;51.58;;;22.92;;
30048;SDS011;16879;50.852;15.602;2022-12-10T08:34:44;35.75;;;17.88;;
30048;SDS011;16879;50.852;15.602;2022-12-10T08:37:10;36.35;;;17.73;;
30048;SDS011;16879;50.852;15.602;2022-12-10T08:39:36;37.92;;;17.92;;
30048;SDS011;16879;50.852;15.602;2022-12-10T08:42:02;46.15;;;24.40;;
30048;SDS011;16879;50.852;15.602;2022-12-10T08:44:28;46.70;;;23.67;;
30048;SDS011;16879;50.852;15.602;2022-12-10T08:46:54;48.17;;;24.88;;
30048;SDS011;16879;50.852;15.602;2022-12-10T08:49:20;42.15;;;22.00;;
30048;SDS011;16879;50.852;15.602;2022-12-10T08:51:46;41.05;;;19.88;;
30048;SDS011;16879;50.852;15.602;2022-12-10T08:54:12;41.03;;;20.63;;
30048;SDS011;16879;50.852;15.602;2022-12-10T08:56:38;43.20;;;22.98;;
30048;SDS011;16879;50.852;15.602;2022-12-10T08:59:04;47.47;;;24.50;;
30048;SDS011;16879;50.852;15.602;2022-12-10T09:01:31;43.92;;;19.88;;
30048;SDS011;16879;50.852;15.602;2022-12-10T09:03:57;38.90;;;20.27;;
30048;SDS011;16879;50.852;15.602;2022-12-10T09:06:23;46.95;;;25.05;;
30048;SDS011;16879;50.852;15.602;2022-12-10T09:08:50;46.60;;;23.02;;
30048;SDS011;16879;50.852;15.602;2022-12-10T09:11:17;40.92;;;20.60;;
30048;SDS011;16879;50.852;15.602;2022-12-10T09:13:45;44.65;;;20.92;;
30048;SDS011;16879;50.852;15.602;2022-12-10T09:16:11;37.13;;;19.05;;
30048;SDS011;16879;50.852;15.602;2022-12-10T09:18:37;37.03;;;20.17;;
30048;SDS011;16879;50.852;15.602;2022-12-10T09:21:04;35.05;;;18.50;;
30048;SDS011;16879;50.852;15.602;2022-12-10T09:23:31;42.40;;;19.98;;
30048;SDS011;16879;50.852;15.602;2022-12-10T09:25:57;38.97;;;20.35;;
30048;SDS011;16879;50.852;15.602;2022-12-10T09:28:24;41.42;;;22.95;;
30048;SDS011;16879;50.852;15.602;2022-12-10T09:30:57;38.95;;;20.65;;
30048;SDS011;16879;50.852;15.602;2022-12-10T09:33:24;45.83;;;22.02;;
30048;SDS011;16879;50.852;15.602;2022-12-10T09:35:51;45.03;;;21.85;;
30048;SDS011;16879;50.852;15.602;2022-12-10T09:38:16;39.95;;;19.15;;
30048;SDS011;16879;50.852;15.602;2022-12-10T09:40:51;37.13;;;19.02;;
30048;SDS011;16879;50.852;15.602;2022-12-10T09:46:18;46.65;;;22.02;;
30048;SDS011;16879;50.852;15.602;2022-12-10T09:51:34;29.90;;;17.13;;
30048;SDS011;16879;50.852;15.602;2022-12-10T09:54:02;44.28;;;20.80;;
30048;SDS011;16879;50.852;15.602;2022-12-10T09:56:31;35.22;;;18.50;;
30048;SDS011;16879;50.852;15.602;2022-12-10T09:59:01;33.35;;;16.08;;
30048;SDS011;16879;50.852;15.602;2022-12-10T10:01:36;37.58;;;19.45;;
30048;SDS011;16879;50.852;15.602;2022-12-10T10:04:04;32.03;;;17.00;;
30048;SDS011;16879;50.852;15.602;2022-12-10T10:06:30;31.98;;;19.80;;
30048;SDS011;16879;50.852;15.602;2022-12-10T10:08:57;31.15;;;17.55;;
30048;SDS011;16879;50.852;15.602;2022-12-10T10:11:29;35.05;;;16.75;;
30048;SDS011;16879;50.852;15.602;2022-12-10T10:14:18;35.17;;;19.85;;
30048;SDS011;16879;50.852;15.602;2022-12-10T10:16:51;38.85;;;20.38;;
30048;SDS011;16879;50.852;15.602;2022-12-10T10:19:20;31.52;;;17.45;;
30048;SDS011;16879;50.852;15.602;2022-12-10T10:22:10;39.50;;;16.75;;
30048;SDS011;16879;50.852;15.602;2022-12-10T10:24:39;35.75;;;17.45;;
30048;SDS011;16879;50.852;15.602;2022-12-10T10:30:02;33.58;;;16.55;;
30048;SDS011;16879;50.852;15.602;2022-12-10T10:35:03;45.38;;;22.42;;
30048;SDS011;16879;50.852;15.602;2022-12-10T10:40:04;42.92;;;23.83;;
30048;SDS011;16879;50.852;15.602;2022-12-10T10:45:02;39.65;;;19.05;;
30048;SDS011;16879;50.852;15.602;2022-12-10T10:47:32;41.92;;;19.08;;
30048;SDS011;16879;50.852;15.602;2022-12-10T10:49:59;42.30;;;20.05;;
30048;SDS011;16879;50.852;15.602;2022-12-10T10:52:30;46.60;;;20.63;;
30048;SDS011;16879;50.852;15.602;2022-12-10T10:55:14;46.38;;;23.20;;
30048;SDS011;16879;50.852;15.602;2022-12-10T10:58:01;54.88;;;26.27;;
30048;SDS011;16879;50.852;15.602;2022-12-10T11:00:28;63.70;;;29.50;;
30048;SDS011;16879;50.852;15.602;2022-12-10T11:02:55;66.80;;;32.65;;
30048;SDS011;16879;50.852;15.602;2022-12-10T11:05:27;72.10;;;32.80;;
30048;SDS011;16879;50.852;15.602;2022-12-10T11:08:02;63.28;;;29.90;;
30048;SDS011;16879;50.852;15.602;2022-12-10T11:10:31;58.55;;;30.40;;
30048;SDS011;16879;50.852;15.602;2022-12-10T11:13:07;50.45;;;26.35;;
30048;SDS011;16879;50.852;15.602;2022-12-10T11:18:41;57.90;;;28.42;;
30048;SDS011;16879;50.852;15.602;2022-12-10T11:23:40;67.75;;;34.33;;
30048;SDS011;16879;50.852;15.602;2022-12-10T11:34:13;47.78;;;24.45;;
30048;SDS011;16879;50.852;15.602;2022-12-10T11:37:18;42.63;;;20.02;;
30048;SDS011;16879;50.852;15.602;2022-12-10T11:39:52;39.00;;;19.42;;
30048;SDS011;16879;50.852;15.602;2022-12-10T11:42:58;39.10;;;19.98;;
30048;SDS011;16879;50.852;15.602;2022-12-10T11:51:23;43.50;;;21.13;;
30048;SDS011;16879;50.852;15.602;2022-12-10T11:54:07;47.30;;;22.90;;
30048;SDS011;16879;50.852;15.602;2022-12-10T11:59:41;40.05;;;19.23;;
30048;SDS011;16879;50.852;15.602;2022-12-10T12:09:45;46.78;;;23.38;;
30048;SDS011;16879;50.852;15.602;2022-12-10T12:12:23;58.75;;;27.70;;
30048;SDS011;16879;50.852;15.602;2022-12-10T12:14:56;49.05;;;21.85;;
30048;SDS011;16879;50.852;15.602;2022-12-10T12:17:28;49.00;;;22.33;;
30048;SDS011;16879;50.852;15.602;2022-12-10T12:20:04;43.03;;;19.90;;
30048;SDS011;16879;50.852;15.602;2022-12-10T12:22:38;38.08;;;18.20;;
30048;SDS011;16879;50.852;15.602;2022-12-10T12:25:10;36.15;;;17.88;;
30048;SDS011;16879;50.852;15.602;2022-12-10T12:27:51;31.15;;;15.38;;
30048;SDS011;16879;50.852;15.602;2022-12-10T12:30:20;50.17;;;24.55;;
30048;SDS011;16879;50.852;15.602;2022-12-10T12:33:01;51.40;;;24.58;;
30048;SDS011;16879;50.852;15.602;2022-12-10T12:38:28;43.30;;;20.17;;
30048;SDS011;16879;50.852;15.602;2022-12-10T12:41:26;61.88;;;31.13;;
30048;SDS011;16879;50.852;15.602;2022-12-10T12:44:04;53.80;;;24.25;;
30048;SDS011;16879;50.852;15.602;2022-12-10T12:46:44;57.72;;;28.58;;
30048;SDS011;16879;50.852;15.602;2022-12-10T12:49:29;50.95;;;24.45;;
30048;SDS011;16879;50.852;15.602;2022-12-10T12:52:09;52.72;;;23.42;;
30048;SDS011;16879;50.852;15.602;2022-12-10T12:54:57;47.25;;;22.52;;
30048;SDS011;16879;50.852;15.602;2022-12-10T12:58:10;40.95;;;20.05;;
30048;SDS011;16879;50.852;15.602;2022-12-10T13:00:18;49.83;;;22.75;;
30048;SDS011;16879;50.852;15.602;2022-12-10T13:05:29;44.00;;;19.63;;
30048;SDS011;16879;50.852;15.602;2022-12-10T13:13:33;46.95;;;21.20;;
30048;SDS011;16879;50.852;15.602;2022-12-10T13:18:45;45.10;;;21.58;;
30048;SDS011;16879;50.852;15.602;2022-12-10T13:21:30;47.88;;;22.30;;
30048;SDS011;16879;50.852;15.602;2022-12-10T13:24:07;40.22;;;18.75;;
30048;SDS011;16879;50.852;15.602;2022-12-10T13:26:40;44.42;;;20.77;;
30048;SDS011;16879;50.852;15.602;2022-12-10T13:29:12;52.83;;;22.27;;
30048;SDS011;16879;50.852;15.602;2022-12-10T13:32:01;49.53;;;22.25;;
30048;SDS011;16879;50.852;15.602;2022-12-10T13:34:31;54.75;;;24.05;;
30048;SDS011;16879;50.852;15.602;2022-12-10T13:37:04;53.85;;;24.20;;
30048;SDS011;16879;50.852;15.602;2022-12-10T13:39:33;44.77;;;21.43;;
30048;SDS011;16879;50.852;15.602;2022-12-10T13:45:04;64.00;;;30.48;;
30048;SDS011;16879;50.852;15.602;2022-12-10T13:49:59;70.88;;;28.30;;
